sensor_id;sensor_type;location;lat;lon;timestamp;pressure;altitude;pressure_sealevel;temperature;humidity
14383;BME280;7275;50.328;8.720;2023-05-02T00:00:32;99773.13;;;19.52;38.42
14383;BME280;7275;50.328;8.720;2023-05-02T00:03:02;99774.19;;;19.49;38.57
14383;BME280;7275;50.328;8.720;2023-05-02T00:05:30;99769.81;;;19.48;38.60
14383;BME280;7275;50.328;8.720;2023-05-02T00:07:58;99765.53;;;19.46;38.66
14383;BME280;7275;50.328;8.720;2023-05-02T00:10:25;99767.47;;;19.44;38.64
14383;BME280;7275;50.328;8.720;2023-05-02T00:12:54;99762.94;;;19.44;38.59
14383;BME280;7275;50.328;8.720;2023-05-02T00:15:22;99762.84;;;19.46;38.76
14383;BME280;7275;50.328;8.720;2023-05-02T00:17:49;99756.63;;;19.45;38.68
14383;BME280;7275;50.328;8.720;2023-05-02T00:20:17;99760.06;;;19.47;38.62
14383;BME280;7275;50.328;8.720;2023-05-02T00:22:44;99760.78;;;19.49;38.60
14383;BME280;7275;50.328;8.720;2023-05-02T00:25:12;99768.72;;;19.51;38.62
14383;BME280;7275;50.328;8.720;2023-05-02T00:27:42;99757.16;;;19.50;38.57
14383;BME280;7275;50.328;8.720;2023-05-02T00:30:13;99759.84;;;19.50;38.62
14383;BME280;7275;50.328;8.720;2023-05-02T00:32:41;99758.84;;;19.51;38.65
14383;BME280;7275;50.328;8.720;2023-05-02T00:35:09;99754.56;;;19.49;38.65
14383;BME280;7275;50.328;8.720;2023-05-02T00:37:36;99762.53;;;19.50;38.65
14383;BME280;7275;50.328;8.720;2023-05-02T00:40:05;99766.16;;;19.49;38.61
14383;BME280;7275;50.328;8.720;2023-05-02T00:42:33;99767.97;;;19.49;38.64
14383;BME280;7275;50.328;8.720;2023-05-02T00:45:02;99765.28;;;19.49;38.67
14383;BME280;7275;50.328;8.720;2023-05-02T00:47:33;99776.03;;;19.49;38.63
14383;BME280;7275;50.328;8.720;2023-05-02T00:50:00;99773.34;;;19.49;38.69
14383;BME280;7275;50.328;8.720;2023-05-02T00:52:31;99778.69;;;19.49;38.75
14383;BME280;7275;50.328;8.720;2023-05-02T00:55:00;99780.44;;;19.50;38.87
14383;BME280;7275;50.328;8.720;2023-05-02T00:57:28;99785.03;;;19.48;38.87
14383;BME280;7275;50.328;8.720;2023-05-02T00:59:56;99780.75;;;19.45;38.83
14383;BME280;7275;50.328;8.720;2023-05-02T01:02:33;99780.00;;;19.43;38.97
14383;BME280;7275;50.328;8.720;2023-05-02T01:05:10;99778.41;;;19.41;38.92
14383;BME280;7275;50.328;8.720;2023-05-02T01:07:50;99783.03;;;19.39;38.74
14383;BME280;7275;50.328;8.720;2023-05-02T01:10:29;99787.75;;;19.35;38.88
14383;BME280;7275;50.328;8.720;2023-05-02T01:13:06;99795.97;;;19.32;39.04
14383;BME280;7275;50.328;8.720;2023-05-02T01:15:37;99805.00;;;19.31;39.08
14383;BME280;7275;50.328;8.720;2023-05-02T01:18:08;99800.47;;;19.32;38.98
14383;BME280;7275;50.328;8.720;2023-05-02T01:20:39;99803.16;;;19.32;38.94
14383;BME280;7275;50.328;8.720;2023-05-02T01:23:13;99800.59;;;19.30;39.04
14383;BME280;7275;50.328;8.720;2023-05-02T01:25:54;99809.38;;;19.32;39.09
14383;BME280;7275;50.328;8.720;2023-05-02T01:28:30;99811.31;;;19.30;39.14
14383;BME280;7275;50.328;8.720;2023-05-02T01:31:05;99810.56;;;19.28;39.14
14383;BME280;7275;50.328;8.720;2023-05-02T01:33:34;99816.03;;;19.27;39.25
14383;BME280;7275;50.328;8.720;2023-05-02T01:36:02;99822.59;;;19.23;39.12
14383;BME280;7275;50.328;8.720;2023-05-02T01:38:30;99821.84;;;19.21;39.32
14383;BME280;7275;50.328;8.720;2023-05-02T01:40:59;99826.34;;;19.20;39.16
14383;BME280;7275;50.328;8.720;2023-05-02T01:43:29;99826.44;;;19.19;39.15
14383;BME280;7275;50.328;8.720;2023-05-02T01:45:59;99821.97;;;19.19;39.24
14383;BME280;7275;50.328;8.720;2023-05-02T01:48:31;99822.16;;;19.16;39.28
14383;BME280;7275;50.328;8.720;2023-05-02T01:50:59;99830.31;;;19.14;39.30
14383;BME280;7275;50.328;8.720;2023-05-02T01:53:27;99831.25;;;19.13;39.22
14383;BME280;7275;50.328;8.720;2023-05-02T01:55:57;99825.16;;;19.11;39.54
14383;BME280;7275;50.328;8.720;2023-05-02T01:58:27;99831.50;;;19.10;39.37
14383;BME280;7275;50.328;8.720;2023-05-02T02:00:58;99831.56;;;19.09;39.55
14383;BME280;7275;50.328;8.720;2023-05-02T02:03:28;99833.50;;;19.07;39.44
14383;BME280;7275;50.328;8.720;2023-05-02T02:06:00;99832.88;;;19.03;39.52
14383;BME280;7275;50.328;8.720;2023-05-02T02:08:29;99834.91;;;19.00;39.68
14383;BME280;7275;50.328;8.720;2023-05-02T02:10:59;99838.78;;;18.96;39.57
14383;BME280;7275;50.328;8.720;2023-05-02T02:13:36;99839.28;;;18.88;39.69
14383;BME280;7275;50.328;8.720;2023-05-02T02:16:09;99835.34;;;18.81;39.73
14383;BME280;7275;50.328;8.720;2023-05-02T02:18:39;99848.28;;;18.75;39.75
14383;BME280;7275;50.328;8.720;2023-05-02T02:21:10;99854.91;;;18.69;39.87
14383;BME280;7275;50.328;8.720;2023-05-02T02:23:41;99860.69;;;18.63;40.05
14383;BME280;7275;50.328;8.720;2023-05-02T02:26:11;99863.88;;;18.56;40.01
14383;BME280;7275;50.328;8.720;2023-05-02T02:28:39;99862.56;;;18.49;40.08
14383;BME280;7275;50.328;8.720;2023-05-02T02:31:08;99856.84;;;18.41;40.23
14383;BME280;7275;50.328;8.720;2023-05-02T02:33:35;99859.94;;;18.34;40.17
14383;BME280;7275;50.328;8.720;2023-05-02T02:36:08;99863.00;;;18.28;40.56
14383;BME280;7275;50.328;8.720;2023-05-02T02:38:43;99870.41;;;18.25;40.44
14383;BME280;7275;50.328;8.720;2023-05-02T02:41:16;99870.69;;;18.20;40.47
14383;BME280;7275;50.328;8.720;2023-05-02T02:43:52;99867.34;;;18.17;40.58
14383;BME280;7275;50.328;8.720;2023-05-02T02:46:29;99871.94;;;18.15;40.60
14383;BME280;7275;50.328;8.720;2023-05-02T02:49:14;99872.03;;;18.13;40.61
14383;BME280;7275;50.328;8.720;2023-05-02T02:51:49;99866.78;;;18.12;40.71
14383;BME280;7275;50.328;8.720;2023-05-02T02:54:24;99874.81;;;18.12;40.83
14383;BME280;7275;50.328;8.720;2023-05-02T02:57:00;99874.94;;;18.10;40.85
14383;BME280;7275;50.328;8.720;2023-05-02T02:59:33;99883.03;;;18.09;40.77
14383;BME280;7275;50.328;8.720;2023-05-02T03:02:05;99884.88;;;18.08;40.89
14383;BME280;7275;50.328;8.720;2023-05-02T03:04:35;99881.44;;;18.06;40.98
14383;BME280;7275;50.328;8.720;2023-05-02T03:07:04;99888.59;;;18.06;40.97
14383;BME280;7275;50.328;8.720;2023-05-02T03:09:43;99894.06;;;18.04;41.04
14383;BME280;7275;50.328;8.720;2023-05-02T03:12:11;99889.75;;;18.02;41.00
14383;BME280;7275;50.328;8.720;2023-05-02T03:14:39;99894.34;;;18.00;41.05
14383;BME280;7275;50.328;8.720;2023-05-02T03:17:07;99899.78;;;17.98;41.21
14383;BME280;7275;50.328;8.720;2023-05-02T03:19:34;99906.22;;;17.96;41.07
14383;BME280;7275;50.328;8.720;2023-05-02T03:22:02;99911.63;;;17.94;41.03
14383;BME280;7275;50.328;8.720;2023-05-02T03:24:30;99925.22;;;17.91;41.16
14383;BME280;7275;50.328;8.720;2023-05-02T03:26:59;99919.13;;;17.89;41.21
14383;BME280;7275;50.328;8.720;2023-05-02T03:29:26;99929.13;;;17.86;41.26
14383;BME280;7275;50.328;8.720;2023-05-02T03:31:54;99927.53;;;17.83;41.25
14383;BME280;7275;50.328;8.720;2023-05-02T03:34:21;99924.16;;;17.80;41.47
14383;BME280;7275;50.328;8.720;2023-05-02T03:36:49;99930.66;;;17.76;41.57
14383;BME280;7275;50.328;8.720;2023-05-02T03:39:17;99926.59;;;17.70;41.53
14383;BME280;7275;50.328;8.720;2023-05-02T03:41:44;99929.44;;;17.67;41.50
14383;BME280;7275;50.328;8.720;2023-05-02T03:44:13;99934.13;;;17.64;41.82
14383;BME280;7275;50.328;8.720;2023-05-02T03:46:41;99944.06;;;17.62;41.90
14383;BME280;7275;50.328;8.720;2023-05-02T03:49:08;99935.38;;;17.58;41.78
14383;BME280;7275;50.328;8.720;2023-05-02T03:51:36;99938.31;;;17.53;42.05
14383;BME280;7275;50.328;8.720;2023-05-02T03:54:03;99936.78;;;17.49;42.17
14383;BME280;7275;50.328;8.720;2023-05-02T03:56:31;99942.38;;;17.45;42.23
14383;BME280;7275;50.328;8.720;2023-05-02T03:58:58;99936.38;;;17.41;42.34
14383;BME280;7275;50.328;8.720;2023-05-02T04:01:27;99938.47;;;17.36;42.41
14383;BME280;7275;50.328;8.720;2023-05-02T04:03:55;99945.81;;;17.33;42.24
14383;BME280;7275;50.328;8.720;2023-05-02T04:06:22;99944.28;;;17.29;42.24
14383;BME280;7275;50.328;8.720;2023-05-02T04:08:50;99948.09;;;17.25;42.45
14383;BME280;7275;50.328;8.720;2023-05-02T04:11:18;99954.47;;;17.22;42.61
14383;BME280;7275;50.328;8.720;2023-05-02T04:13:45;99954.47;;;17.22;42.43
14383;BME280;7275;50.328;8.720;2023-05-02T04:16:13;99955.41;;;17.21;42.56
14383;BME280;7275;50.328;8.720;2023-05-02T04:18:42;99956.38;;;17.20;42.54
14383;BME280;7275;50.328;8.720;2023-05-02T04:21:09;99957.31;;;17.19;42.75
14383;BME280;7275;50.328;8.720;2023-05-02T04:23:37;99963.63;;;17.18;42.86
14383;BME280;7275;50.328;8.720;2023-05-02T04:26:05;99958.34;;;17.17;42.78
14383;BME280;7275;50.328;8.720;2023-05-02T04:28:33;99962.00;;;17.16;43.00
14383;BME280;7275;50.328;8.720;2023-05-02T04:31:01;99965.53;;;17.16;42.96
14383;BME280;7275;50.328;8.720;2023-05-02T04:33:29;99972.59;;;17.17;43.16
14383;BME280;7275;50.328;8.720;2023-05-02T04:35:58;99968.00;;;17.19;43.06
14383;BME280;7275;50.328;8.720;2023-05-02T04:38:26;99984.81;;;17.21;43.00
14383;BME280;7275;50.328;8.720;2023-05-02T04:40:53;99985.56;;;17.23;43.18
14383;BME280;7275;50.328;8.720;2023-05-02T04:43:21;100000.47;;;17.27;43.15
14383;BME280;7275;50.328;8.720;2023-05-02T04:45:50;100000.31;;;17.30;42.98
14383;BME280;7275;50.328;8.720;2023-05-02T04:48:18;99998.41;;;17.32;43.18
14383;BME280;7275;50.328;8.720;2023-05-02T04:50:48;100012.63;;;17.33;43.13
14383;BME280;7275;50.328;8.720;2023-05-02T04:53:17;100020.38;;;17.37;42.84
14383;BME280;7275;50.328;8.720;2023-05-02T04:55:44;100021.16;;;17.39;43.00
14383;BME280;7275;50.328;8.720;2023-05-02T04:58:12;100022.69;;;17.43;43.06
14383;BME280;7275;50.328;8.720;2023-05-02T05:00:39;100035.84;;;17.46;43.10
14383;BME280;7275;50.328;8.720;2023-05-02T05:03:07;100034.72;;;17.50;43.02
14383;BME280;7275;50.328;8.720;2023-05-02T05:05:34;100038.09;;;17.54;43.10
14383;BME280;7275;50.328;8.720;2023-05-02T05:08:02;100042.31;;;17.58;43.12
14383;BME280;7275;50.328;8.720;2023-05-02T05:10:31;100055.09;;;17.67;43.09
14383;BME280;7275;50.328;8.720;2023-05-02T05:12:59;100066.28;;;17.74;42.94
14383;BME280;7275;50.328;8.720;2023-05-02T05:15:26;100057.13;;;17.78;42.89
14383;BME280;7275;50.328;8.720;2023-05-02T05:17:54;100066.69;;;17.82;43.18
14383;BME280;7275;50.328;8.720;2023-05-02T05:20:21;100072.53;;;17.88;43.03
14383;BME280;7275;50.328;8.720;2023-05-02T05:22:49;100073.22;;;17.92;43.11
14383;BME280;7275;50.328;8.720;2023-05-02T05:25:16;100081.91;;;17.95;42.94
14383;BME280;7275;50.328;8.720;2023-05-02T05:27:45;100089.56;;;18.01;43.11
14383;BME280;7275;50.328;8.720;2023-05-02T05:30:12;100093.59;;;18.08;43.00
14383;BME280;7275;50.328;8.720;2023-05-02T05:32:40;100093.19;;;18.14;43.00
14383;BME280;7275;50.328;8.720;2023-05-02T05:35:08;100095.59;;;18.19;42.90
14383;BME280;7275;50.328;8.720;2023-05-02T05:37:36;100102.47;;;18.23;43.03
14383;BME280;7275;50.328;8.720;2023-05-02T05:40:06;100109.34;;;18.27;42.88
14383;BME280;7275;50.328;8.720;2023-05-02T05:42:34;100101.72;;;18.35;43.00
14383;BME280;7275;50.328;8.720;2023-05-02T05:45:03;100106.44;;;18.46;42.97
14383;BME280;7275;50.328;8.720;2023-05-02T05:47:31;100105.75;;;18.56;42.71
14383;BME280;7275;50.328;8.720;2023-05-02T05:49:59;100116.72;;;18.66;42.68
14383;BME280;7275;50.328;8.720;2023-05-02T05:52:27;100117.09;;;18.74;42.55
14383;BME280;7275;50.328;8.720;2023-05-02T05:54:54;100114.00;;;18.80;42.61
14383;BME280;7275;50.328;8.720;2023-05-02T05:57:22;100109.88;;;18.88;42.31
14383;BME280;7275;50.328;8.720;2023-05-02T05:59:50;100111.41;;;18.92;42.24
14383;BME280;7275;50.328;8.720;2023-05-02T06:02:19;100115.53;;;18.98;42.09
14383;BME280;7275;50.328;8.720;2023-05-02T06:04:46;100120.66;;;19.01;42.05
14383;BME280;7275;50.328;8.720;2023-05-02T06:07:14;100118.66;;;19.04;41.93
14383;BME280;7275;50.328;8.720;2023-05-02T06:09:42;100121.88;;;19.09;41.88
14383;BME280;7275;50.328;8.720;2023-05-02T06:12:09;100118.25;;;19.10;41.67
14383;BME280;7275;50.328;8.720;2023-05-02T06:14:37;100120.94;;;19.10;41.66
14383;BME280;7275;50.328;8.720;2023-05-02T06:17:05;100127.91;;;19.13;41.64
14383;BME280;7275;50.328;8.720;2023-05-02T06:19:34;100125.97;;;19.15;41.66
14383;BME280;7275;50.328;8.720;2023-05-02T06:22:01;100128.59;;;19.17;41.49
14383;BME280;7275;50.328;8.720;2023-05-02T06:24:29;100131.25;;;19.17;41.52
14383;BME280;7275;50.328;8.720;2023-05-02T06:26:57;100134.69;;;19.19;41.75
14383;BME280;7275;50.328;8.720;2023-05-02T06:29:25;100128.81;;;19.26;41.95
14383;BME280;7275;50.328;8.720;2023-05-02T06:31:54;100133.31;;;19.40;42.00
14383;BME280;7275;50.328;8.720;2023-05-02T06:34:22;100136.56;;;19.57;41.93
14383;BME280;7275;50.328;8.720;2023-05-02T06:36:54;100147.59;;;19.79;42.06
14383;BME280;7275;50.328;8.720;2023-05-02T06:39:22;100146.78;;;20.04;41.63
14383;BME280;7275;50.328;8.720;2023-05-02T06:41:50;100153.03;;;20.30;41.63
14383;BME280;7275;50.328;8.720;2023-05-02T06:44:17;100153.78;;;20.57;41.39
14383;BME280;7275;50.328;8.720;2023-05-02T06:46:45;100161.06;;;20.80;41.02
14383;BME280;7275;50.328;8.720;2023-05-02T06:49:12;100150.19;;;20.94;40.78
14383;BME280;7275;50.328;8.720;2023-05-02T06:51:40;100165.56;;;21.05;40.50
14383;BME280;7275;50.328;8.720;2023-05-02T06:54:09;100172.44;;;21.09;40.27
14383;BME280;7275;50.328;8.720;2023-05-02T06:56:36;100175.97;;;21.09;39.88
14383;BME280;7275;50.328;8.720;2023-05-02T06:59:04;100188.56;;;21.09;39.83
14383;BME280;7275;50.328;8.720;2023-05-02T07:01:32;100185.97;;;21.07;39.75
14383;BME280;7275;50.328;8.720;2023-05-02T07:04:00;100190.72;;;21.04;39.69
14383;BME280;7275;50.328;8.720;2023-05-02T07:06:29;100190.28;;;20.97;39.48
14383;BME280;7275;50.328;8.720;2023-05-02T07:08:57;100206.09;;;20.89;39.35
14383;BME280;7275;50.328;8.720;2023-05-02T07:11:26;100205.03;;;20.79;39.34
14383;BME280;7275;50.328;8.720;2023-05-02T07:13:54;100206.66;;;20.69;39.48
14383;BME280;7275;50.328;8.720;2023-05-02T07:16:22;100204.50;;;20.61;39.51
14383;BME280;7275;50.328;8.720;2023-05-02T07:18:49;100214.72;;;20.56;39.48
14383;BME280;7275;50.328;8.720;2023-05-02T07:21:17;100212.34;;;20.52;39.48
14383;BME280;7275;50.328;8.720;2023-05-02T07:23:45;100214.28;;;20.50;39.60
14383;BME280;7275;50.328;8.720;2023-05-02T07:26:12;100217.19;;;20.47;39.68
14383;BME280;7275;50.328;8.720;2023-05-02T07:28:42;100221.03;;;20.43;39.44
14383;BME280;7275;50.328;8.720;2023-05-02T07:31:09;100225.91;;;20.38;39.48
14383;BME280;7275;50.328;8.720;2023-05-02T07:33:37;100235.78;;;20.37;39.59
14383;BME280;7275;50.328;8.720;2023-05-02T07:36:04;100236.09;;;20.33;39.57
14383;BME280;7275;50.328;8.720;2023-05-02T07:38:32;100235.31;;;20.31;39.59
14383;BME280;7275;50.328;8.720;2023-05-02T07:41:00;100240.91;;;20.28;39.51
14383;BME280;7275;50.328;8.720;2023-05-02T07:43:27;100236.50;;;20.27;39.70
14383;BME280;7275;50.328;8.720;2023-05-02T07:45:56;100232.00;;;20.27;39.73
14383;BME280;7275;50.328;8.720;2023-05-02T07:48:24;100243.59;;;20.28;39.76
14383;BME280;7275;50.328;8.720;2023-05-02T07:50:53;100238.22;;;20.28;39.77
14383;BME280;7275;50.328;8.720;2023-05-02T07:53:20;100237.38;;;20.27;39.66
14383;BME280;7275;50.328;8.720;2023-05-02T07:55:48;100240.16;;;20.26;39.65
14383;BME280;7275;50.328;8.720;2023-05-02T07:58:15;100244.13;;;20.20;39.68
14383;BME280;7275;50.328;8.720;2023-05-02T08:00:43;100244.13;;;20.20;39.74
14383;BME280;7275;50.328;8.720;2023-05-02T08:03:12;100242.06;;;20.24;39.96
14383;BME280;7275;50.328;8.720;2023-05-02T08:05:39;100244.88;;;20.35;39.84
14383;BME280;7275;50.328;8.720;2023-05-02T08:08:07;100249.41;;;20.47;39.87
14383;BME280;7275;50.328;8.720;2023-05-02T08:10:34;100245.88;;;20.59;39.80
14383;BME280;7275;50.328;8.720;2023-05-02T08:13:02;100245.03;;;20.71;39.75
14383;BME280;7275;50.328;8.720;2023-05-02T08:15:29;100251.69;;;20.78;39.54
14383;BME280;7275;50.328;8.720;2023-05-02T08:17:57;100255.66;;;20.85;39.39
14383;BME280;7275;50.328;8.720;2023-05-02T08:20:26;100251.34;;;20.95;39.25
14383;BME280;7275;50.328;8.720;2023-05-02T08:22:53;100264.28;;;21.03;39.17
14383;BME280;7275;50.328;8.720;2023-05-02T08:25:25;100261.19;;;21.09;39.13
14383;BME280;7275;50.328;8.720;2023-05-02T08:27:52;100263.31;;;21.16;38.89
14383;BME280;7275;50.328;8.720;2023-05-02T08:30:20;100268.03;;;21.25;38.82
14383;BME280;7275;50.328;8.720;2023-05-02T08:32:47;100262.50;;;21.39;38.95
14383;BME280;7275;50.328;8.720;2023-05-02T08:35:15;100260.41;;;21.56;38.91
14383;BME280;7275;50.328;8.720;2023-05-02T08:37:44;100265.59;;;21.82;38.76
14383;BME280;7275;50.328;8.720;2023-05-02T08:40:13;100264.34;;;21.99;38.20
14383;BME280;7275;50.328;8.720;2023-05-02T08:42:41;100261.59;;;22.11;38.21
14383;BME280;7275;50.328;8.720;2023-05-02T08:45:11;100264.94;;;22.26;37.91
14383;BME280;7275;50.328;8.720;2023-05-02T08:47:41;100259.72;;;22.36;37.67
14383;BME280;7275;50.328;8.720;2023-05-02T08:50:10;100259.88;;;22.45;38.03
14383;BME280;7275;50.328;8.720;2023-05-02T08:52:38;100268.13;;;22.55;37.50
14383;BME280;7275;50.328;8.720;2023-05-02T08:55:08;100269.63;;;22.59;37.93
14383;BME280;7275;50.328;8.720;2023-05-02T08:57:36;100282.75;;;22.63;37.97
14383;BME280;7275;50.328;8.720;2023-05-02T09:00:05;100288.25;;;22.62;37.39
14383;BME280;7275;50.328;8.720;2023-05-02T09:02:46;100291.38;;;22.56;37.32
14383;BME280;7275;50.328;8.720;2023-05-02T09:05:19;100287.34;;;22.50;37.47
14383;BME280;7275;50.328;8.720;2023-05-02T09:07:48;100287.22;;;22.52;37.33
14383;BME280;7275;50.328;8.720;2023-05-02T09:10:17;100296.91;;;22.54;37.39
14383;BME280;7275;50.328;8.720;2023-05-02T09:12:44;100304.53;;;22.60;37.45
14383;BME280;7275;50.328;8.720;2023-05-02T09:15:13;100296.84;;;22.67;37.51
14383;BME280;7275;50.328;8.720;2023-05-02T09:17:46;100296.97;;;22.76;37.74
14383;BME280;7275;50.328;8.720;2023-05-02T09:20:15;100302.25;;;22.89;37.31
14383;BME280;7275;50.328;8.720;2023-05-02T09:22:50;100287.81;;;23.01;37.36
14383;BME280;7275;50.328;8.720;2023-05-02T09:25:19;100298.63;;;23.12;37.14
14383;BME280;7275;50.328;8.720;2023-05-02T09:27:51;100295.56;;;23.17;36.95
14383;BME280;7275;50.328;8.720;2023-05-02T09:30:21;100302.66;;;23.18;36.94
14383;BME280;7275;50.328;8.720;2023-05-02T09:32:50;100303.66;;;23.17;36.95
14383;BME280;7275;50.328;8.720;2023-05-02T09:35:18;100300.44;;;23.12;37.01
14383;BME280;7275;50.328;8.720;2023-05-02T09:37:53;100302.53;;;23.08;37.02
14383;BME280;7275;50.328;8.720;2023-05-02T09:40:22;100298.75;;;23.11;36.71
14383;BME280;7275;50.328;8.720;2023-05-02T09:42:51;100301.91;;;23.16;36.91
14383;BME280;7275;50.328;8.720;2023-05-02T09:45:19;100307.59;;;23.24;36.90
14383;BME280;7275;50.328;8.720;2023-05-02T09:47:48;100310.94;;;23.38;36.54
14383;BME280;7275;50.328;8.720;2023-05-02T09:50:32;100302.22;;;23.57;36.53
14383;BME280;7275;50.328;8.720;2023-05-02T09:53:02;100305.72;;;23.79;36.78
14383;BME280;7275;50.328;8.720;2023-05-02T09:55:31;100305.19;;;24.08;36.29
14383;BME280;7275;50.328;8.720;2023-05-02T09:57:58;100306.50;;;24.45;36.65
14383;BME280;7275;50.328;8.720;2023-05-02T10:00:40;100296.50;;;24.98;36.88
14383;BME280;7275;50.328;8.720;2023-05-02T10:03:09;100295.31;;;25.42;36.04
14383;BME280;7275;50.328;8.720;2023-05-02T10:05:38;100300.41;;;25.65;35.18
14383;BME280;7275;50.328;8.720;2023-05-02T10:08:06;100291.75;;;25.81;34.75
14383;BME280;7275;50.328;8.720;2023-05-02T10:10:37;100304.03;;;25.94;34.73
14383;BME280;7275;50.328;8.720;2023-05-02T10:13:07;100296.41;;;26.09;34.17
14383;BME280;7275;50.328;8.720;2023-05-02T10:15:39;100292.97;;;26.45;34.05
14383;BME280;7275;50.328;8.720;2023-05-02T10:18:12;100297.78;;;26.89;34.10
14383;BME280;7275;50.328;8.720;2023-05-02T10:20:43;100283.78;;;27.31;33.65
14383;BME280;7275;50.328;8.720;2023-05-02T10:23:15;100288.38;;;27.40;32.76
14383;BME280;7275;50.328;8.720;2023-05-02T10:25:44;100280.91;;;27.51;32.64
14383;BME280;7275;50.328;8.720;2023-05-02T10:28:13;100288.34;;;27.94;32.40
14383;BME280;7275;50.328;8.720;2023-05-02T10:30:41;100285.47;;;28.58;32.14
14383;BME280;7275;50.328;8.720;2023-05-02T10:33:12;100287.22;;;29.36;31.65
14383;BME280;7275;50.328;8.720;2023-05-02T10:35:43;100282.03;;;30.09;31.26
14383;BME280;7275;50.328;8.720;2023-05-02T10:38:11;100274.63;;;30.83;30.58
14383;BME280;7275;50.328;8.720;2023-05-02T10:40:40;100271.84;;;31.70;30.04
14383;BME280;7275;50.328;8.720;2023-05-02T10:43:12;100270.78;;;32.33;28.82
14383;BME280;7275;50.328;8.720;2023-05-02T10:45:41;100268.66;;;32.20;28.38
14383;BME280;7275;50.328;8.720;2023-05-02T10:48:16;100267.38;;;32.08;28.10
14383;BME280;7275;50.328;8.720;2023-05-02T10:50:45;100256.25;;;32.32;27.77
14383;BME280;7275;50.328;8.720;2023-05-02T10:53:27;100269.59;;;32.58;27.82
14383;BME280;7275;50.328;8.720;2023-05-02T10:56:10;100259.47;;;32.81;27.73
14383;BME280;7275;50.328;8.720;2023-05-02T10:58:39;100261.06;;;32.90;26.95
14383;BME280;7275;50.328;8.720;2023-05-02T11:01:32;100261.72;;;33.15;27.06
14383;BME280;7275;50.328;8.720;2023-05-02T11:04:06;100254.63;;;32.83;26.58
14383;BME280;7275;50.328;8.720;2023-05-02T11:06:34;100255.31;;;32.48;26.31
14383;BME280;7275;50.328;8.720;2023-05-02T11:09:30;100261.59;;;32.03;26.54
14383;BME280;7275;50.328;8.720;2023-05-02T11:11:59;100258.38;;;31.61;26.36
14383;BME280;7275;50.328;8.720;2023-05-02T11:14:43;100264.22;;;30.95;26.71
14383;BME280;7275;50.328;8.720;2023-05-02T11:17:13;100274.63;;;30.43;26.82
14383;BME280;7275;50.328;8.720;2023-05-02T11:22:52;100270.50;;;29.05;27.29
14383;BME280;7275;50.328;8.720;2023-05-02T11:25:31;100279.22;;;28.48;28.39
14383;BME280;7275;50.328;8.720;2023-05-02T11:28:00;100279.84;;;28.07;28.28
14383;BME280;7275;50.328;8.720;2023-05-02T11:30:43;100265.50;;;27.69;28.63
14383;BME280;7275;50.328;8.720;2023-05-02T11:33:15;100270.78;;;27.44;28.75
14383;BME280;7275;50.328;8.720;2023-05-02T11:35:47;100280.59;;;27.18;29.18
14383;BME280;7275;50.328;8.720;2023-05-02T11:38:19;100279.94;;;26.97;29.50
14383;BME280;7275;50.328;8.720;2023-05-02T11:40:51;100283.13;;;26.73;29.67
14383;BME280;7275;50.328;8.720;2023-05-02T11:43:20;100282.28;;;26.53;29.97
14383;BME280;7275;50.328;8.720;2023-05-02T11:45:49;100281.84;;;26.29;30.22
14383;BME280;7275;50.328;8.720;2023-05-02T11:48:19;100290.69;;;26.12;30.74
14383;BME280;7275;50.328;8.720;2023-05-02T11:50:49;100290.97;;;26.09;30.79
14383;BME280;7275;50.328;8.720;2023-05-02T11:53:18;100287.41;;;26.18;30.94
14383;BME280;7275;50.328;8.720;2023-05-02T11:55:49;100285.53;;;26.66;30.61
14383;BME280;7275;50.328;8.720;2023-05-02T11:58:20;100280.22;;;27.67;30.09
14383;BME280;7275;50.328;8.720;2023-05-02T12:00:50;100281.34;;;27.92;29.55
14383;BME280;7275;50.328;8.720;2023-05-02T12:03:19;100283.81;;;27.85;29.85
14383;BME280;7275;50.328;8.720;2023-05-02T12:05:49;100299.94;;;27.69;30.24
14383;BME280;7275;50.328;8.720;2023-05-02T12:08:18;100305.22;;;27.43;30.10
14383;BME280;7275;50.328;8.720;2023-05-02T12:10:45;100312.63;;;27.05;30.06
14383;BME280;7275;50.328;8.720;2023-05-02T12:13:13;100309.81;;;26.58;29.56
14383;BME280;7275;50.328;8.720;2023-05-02T12:15:40;100320.50;;;26.12;30.44
14383;BME280;7275;50.328;8.720;2023-05-02T12:18:11;100313.00;;;25.76;30.99
14383;BME280;7275;50.328;8.720;2023-05-02T12:20:39;100316.19;;;25.51;31.78
14383;BME280;7275;50.328;8.720;2023-05-02T12:23:08;100322.34;;;25.32;31.61
14383;BME280;7275;50.328;8.720;2023-05-02T12:25:38;100318.84;;;25.20;32.20
14383;BME280;7275;50.328;8.720;2023-05-02T12:28:06;100319.53;;;25.13;32.72
14383;BME280;7275;50.328;8.720;2023-05-02T12:30:36;100325.66;;;25.15;33.32
14383;BME280;7275;50.328;8.720;2023-05-02T12:33:05;100325.72;;;25.24;33.22
14383;BME280;7275;50.328;8.720;2023-05-02T12:35:34;100320.78;;;25.39;33.25
14383;BME280;7275;50.328;8.720;2023-05-02T12:38:10;100327.44;;;25.56;33.45
14383;BME280;7275;50.328;8.720;2023-05-02T12:40:44;100317.69;;;25.74;33.29
14383;BME280;7275;50.328;8.720;2023-05-02T12:43:13;100326.84;;;25.92;33.01
14383;BME280;7275;50.328;8.720;2023-05-02T12:45:40;100323.09;;;26.13;32.86
14383;BME280;7275;50.328;8.720;2023-05-02T12:48:20;100324.94;;;26.42;33.33
14383;BME280;7275;50.328;8.720;2023-05-02T12:50:49;100322.94;;;26.91;32.37
14383;BME280;7275;50.328;8.720;2023-05-02T12:53:17;100317.25;;;27.31;31.85
14383;BME280;7275;50.328;8.720;2023-05-02T12:56:04;100305.13;;;27.62;31.60
14383;BME280;7275;50.328;8.720;2023-05-02T12:58:40;100308.91;;;27.79;31.08
14383;BME280;7275;50.328;8.720;2023-05-02T13:01:08;100315.50;;;27.77;30.31
14383;BME280;7275;50.328;8.720;2023-05-02T13:03:36;100328.00;;;27.69;31.11
14383;BME280;7275;50.328;8.720;2023-05-02T13:06:05;100323.88;;;27.65;30.61
14383;BME280;7275;50.328;8.720;2023-05-02T13:08:33;100317.16;;;27.60;30.46
14383;BME280;7275;50.328;8.720;2023-05-02T13:11:02;100327.22;;;27.50;29.73
14383;BME280;7275;50.328;8.720;2023-05-02T13:13:30;100333.38;;;27.33;30.32
14383;BME280;7275;50.328;8.720;2023-05-02T13:15:57;100336.16;;;27.23;29.96
14383;BME280;7275;50.328;8.720;2023-05-02T13:18:25;100332.75;;;27.12;30.42
14383;BME280;7275;50.328;8.720;2023-05-02T13:20:53;100338.91;;;27.14;30.30